createdAt,value
2018-10-03T00:01:38.479Z,8.90
2018-10-03T00:04:07.147Z,9.00
2018-10-03T00:06:36.533Z,9.00
2018-10-03T00:09:06.994Z,9.00
2018-10-03T00:11:35.548Z,9.00
2018-10-03T00:14:04.354Z,9.10
2018-10-03T00:16:32.922Z,9.10
2018-10-03T00:19:01.459Z,9.10
2018-10-03T00:21:30.340Z,9.10
2018-10-03T00:23:58.876Z,9.20
2018-10-03T00:26:27.428Z,9.20
2018-10-03T00:28:55.991Z,9.20
2018-10-03T00:31:24.531Z,9.20
2018-10-03T00:33:53.130Z,9.30
2018-10-03T00:36:21.720Z,9.20
2018-10-03T00:38:50.255Z,9.20
2018-10-03T00:41:18.788Z,9.30
2018-10-03T00:43:47.310Z,9.30
2018-10-03T00:46:15.877Z,9.30
2018-10-03T00:48:44.422Z,9.30
2018-10-03T00:51:13.003Z,9.30
2018-10-03T00:53:41.543Z,9.30
2018-10-03T00:56:10.117Z,9.30
2018-10-03T00:58:38.722Z,9.40
2018-10-03T01:01:07.448Z,9.40
2018-10-03T01:03:35.999Z,9.40
2018-10-03T01:06:04.606Z,9.40
2018-10-03T01:08:33.182Z,9.40
2018-10-03T01:11:01.866Z,9.50
2018-10-03T01:13:30.442Z,9.50
2018-10-03T01:15:59.021Z,9.50
2018-10-03T01:18:27.583Z,9.50
2018-10-03T01:20:56.125Z,9.40
2018-10-03T01:23:24.638Z,9.50
2018-10-03T01:25:53.190Z,9.50
2018-10-03T01:28:21.752Z,9.50
2018-10-03T01:30:50.344Z,9.50
2018-10-03T01:33:18.867Z,9.50
2018-10-03T01:35:47.415Z,9.50
2018-10-03T01:38:15.993Z,9.50
2018-10-03T01:40:44.602Z,9.50
2018-10-03T01:43:13.195Z,9.50
2018-10-03T01:45:41.742Z,9.50
2018-10-03T01:48:10.262Z,9.40
2018-10-03T01:50:38.805Z,9.50
2018-10-03T01:53:07.368Z,9.50
2018-10-03T01:55:35.925Z,9.50
2018-10-03T01:58:04.457Z,9.50
2018-10-03T02:00:33.003Z,9.50
2018-10-03T02:03:01.557Z,9.40
2018-10-03T02:05:30.110Z,9.50
2018-10-03T02:07:58.679Z,9.50
2018-10-03T02:10:27.217Z,9.50
2018-10-03T02:12:55.762Z,9.40
2018-10-03T02:15:24.285Z,9.40
2018-10-03T02:17:52.842Z,9.40
2018-10-03T02:20:21.403Z,9.40
2018-10-03T02:22:49.960Z,9.30
2018-10-03T02:25:18.502Z,9.30
2018-10-03T02:27:47.041Z,9.30
2018-10-03T02:30:15.591Z,9.30
2018-10-03T02:32:44.193Z,9.30
2018-10-03T02:35:12.742Z,9.20
2018-10-03T02:37:41.314Z,9.20
2018-10-03T02:40:09.888Z,9.20
2018-10-03T02:42:38.525Z,9.20
2018-10-03T02:45:07.477Z,9.20
2018-10-03T02:47:36.219Z,9.20
2018-10-03T02:50:04.846Z,9.20
2018-10-03T02:52:33.396Z,9.20
2018-10-03T02:55:01.943Z,9.20
2018-10-03T02:57:30.489Z,9.20
2018-10-03T02:59:59.015Z,9.20
2018-10-03T03:02:27.558Z,9.20
2018-10-03T03:04:56.139Z,9.20
2018-10-03T03:07:24.696Z,9.20
2018-10-03T03:09:53.237Z,9.10
2018-10-03T03:12:21.787Z,9.10
2018-10-03T03:14:51.098Z,9.00
2018-10-03T03:17:19.675Z,9.00
2018-10-03T03:19:48.222Z,9.00
2018-10-03T03:22:16.759Z,9.00
2018-10-03T03:24:45.316Z,8.90
2018-10-03T03:27:13.912Z,8.90
2018-10-03T03:29:42.466Z,9.00
2018-10-03T03:32:11.049Z,9.00
2018-10-03T03:34:39.621Z,8.90
2018-10-03T03:37:08.208Z,8.90
2018-10-03T03:39:36.775Z,8.90
2018-10-03T03:42:05.317Z,8.90
2018-10-03T03:44:33.869Z,8.90
2018-10-03T03:47:02.451Z,8.90
2018-10-03T03:49:31.002Z,8.90
2018-10-03T03:51:59.582Z,8.80
2018-10-03T03:54:28.193Z,8.80
2018-10-03T03:56:56.720Z,8.70
2018-10-03T03:59:25.290Z,8.70
2018-10-03T04:01:53.855Z,8.70
2018-10-03T04:04:22.468Z,8.60
2018-10-03T04:06:51.009Z,8.60
2018-10-03T04:09:19.572Z,8.60
2018-10-03T04:11:48.141Z,8.60
2018-10-03T04:14:16.767Z,8.60
2018-10-03T04:16:45.657Z,8.50
2018-10-03T04:19:14.200Z,8.50
2018-10-03T04:21:42.805Z,8.40
2018-10-03T04:24:12.102Z,8.40
2018-10-03T04:26:41.012Z,8.40
2018-10-03T04:29:09.553Z,8.40
2018-10-03T04:31:38.158Z,8.40
2018-10-03T04:34:06.916Z,8.40
2018-10-03T04:36:35.875Z,8.40
2018-10-03T04:39:06.013Z,8.40
2018-10-03T04:41:34.956Z,8.40
2018-10-03T04:44:03.538Z,8.40
2018-10-03T04:46:32.300Z,8.40
2018-10-03T04:49:00.875Z,8.40
2018-10-03T04:51:29.448Z,8.40
2018-10-03T04:53:57.995Z,8.40
2018-10-03T04:56:26.547Z,8.40
2018-10-03T04:58:55.082Z,8.40
2018-10-03T05:01:23.616Z,8.40
2018-10-03T05:03:52.165Z,8.40
2018-10-03T05:06:20.756Z,8.40
2018-10-03T05:08:49.341Z,8.40
2018-10-03T05:11:17.955Z,8.40
2018-10-03T05:13:46.473Z,8.40
2018-10-03T05:16:15.018Z,8.30
2018-10-03T05:18:43.565Z,8.30
2018-10-03T05:21:12.089Z,8.30
2018-10-03T05:23:40.617Z,8.30
2018-10-03T05:26:09.183Z,8.30
2018-10-03T05:28:37.747Z,8.30
2018-10-03T05:31:06.586Z,8.40
2018-10-03T05:33:35.938Z,8.40
2018-10-03T05:36:04.507Z,8.40
2018-10-03T05:38:33.070Z,8.50
2018-10-03T05:41:01.629Z,8.40
2018-10-03T05:43:30.223Z,8.50
2018-10-03T05:45:58.765Z,8.50
2018-10-03T05:48:27.445Z,8.50
2018-10-03T05:50:55.985Z,8.60
2018-10-03T05:53:24.576Z,8.60
2018-10-03T05:55:53.140Z,8.70
2018-10-03T05:58:21.691Z,8.80
2018-10-03T06:00:50.247Z,8.80
2018-10-03T06:03:18.916Z,8.80
2018-10-03T06:05:47.497Z,8.90
2018-10-03T06:08:16.066Z,9.00
2018-10-03T06:10:44.631Z,9.00
2018-10-03T06:13:13.244Z,9.00
2018-10-03T06:15:41.852Z,9.00
2018-10-03T06:18:10.412Z,9.00
2018-10-03T06:20:39.011Z,9.00
2018-10-03T06:23:07.571Z,9.10
2018-10-03T06:25:36.171Z,9.10
2018-10-03T06:28:04.772Z,9.20
2018-10-03T06:30:33.339Z,9.30
2018-10-03T06:33:01.934Z,9.40
2018-10-03T06:35:30.500Z,9.50
2018-10-03T06:37:59.027Z,9.50
2018-10-03T06:40:27.606Z,9.60
2018-10-03T06:42:56.157Z,9.70
2018-10-03T06:45:24.725Z,9.80
2018-10-03T06:47:53.259Z,9.90
2018-10-03T06:50:21.810Z,9.80
2018-10-03T06:52:50.392Z,9.80
2018-10-03T06:55:18.939Z,9.80
2018-10-03T06:57:47.483Z,9.80
2018-10-03T07:00:16.072Z,9.80
2018-10-03T07:02:44.631Z,9.70
2018-10-03T07:05:13.227Z,9.70
2018-10-03T07:07:41.792Z,9.70
2018-10-03T07:10:10.455Z,9.80
2018-10-03T07:12:39.006Z,10.00
2018-10-03T07:15:07.593Z,10.00
2018-10-03T07:17:36.144Z,10.10
2018-10-03T07:20:04.774Z,10.20
2018-10-03T07:22:33.383Z,10.40
2018-10-03T07:25:01.965Z,10.60
2018-10-03T07:27:31.857Z,10.60
2018-10-03T07:30:00.418Z,10.70
2018-10-03T07:32:29.035Z,10.60
2018-10-03T07:34:57.586Z,10.70
2018-10-03T07:37:26.128Z,10.70
2018-10-03T07:39:54.681Z,10.80
2018-10-03T07:42:23.239Z,11.00
2018-10-03T07:44:51.822Z,11.20
2018-10-03T07:47:21.414Z,11.20
2018-10-03T07:49:50.010Z,11.10
2018-10-03T07:52:18.521Z,11.10
2018-10-03T07:54:47.244Z,11.00
2018-10-03T07:57:15.826Z,11.00
2018-10-03T07:59:44.386Z,11.00
2018-10-03T08:02:12.929Z,11.00
2018-10-03T08:04:41.491Z,11.20
2018-10-03T08:07:10.156Z,11.30
2018-10-03T08:09:38.714Z,11.40
2018-10-03T08:12:07.335Z,11.20
2018-10-03T08:14:35.896Z,11.30
2018-10-03T08:17:04.503Z,11.50
2018-10-03T08:19:33.036Z,11.40
2018-10-03T08:22:01.597Z,11.30
2018-10-03T08:24:30.156Z,11.20
2018-10-03T08:26:58.731Z,11.10
2018-10-03T08:29:27.332Z,11.00
2018-10-03T08:31:55.935Z,11.10
2018-10-03T08:34:24.577Z,11.10
2018-10-03T08:36:53.152Z,11.10
2018-10-03T08:39:21.689Z,11.10
2018-10-03T08:41:50.260Z,11.10
2018-10-03T08:44:18.828Z,11.20
2018-10-03T08:46:47.416Z,11.10
2018-10-03T08:49:15.986Z,11.10
2018-10-03T08:51:44.590Z,11.00
2018-10-03T08:54:13.152Z,10.90
2018-10-03T08:56:41.708Z,10.90
2018-10-03T08:59:10.303Z,10.80
2018-10-03T09:01:38.875Z,10.80
2018-10-03T09:04:07.527Z,10.70
2018-10-03T09:06:36.122Z,10.70
2018-10-03T09:09:06.602Z,10.70
2018-10-03T09:11:35.282Z,10.70
2018-10-03T09:14:03.745Z,10.80
2018-10-03T09:16:32.333Z,10.80
2018-10-03T09:19:00.904Z,10.70
2018-10-03T09:21:29.556Z,10.80
2018-10-03T09:23:58.044Z,10.70
2018-10-03T09:26:26.596Z,10.70
2018-10-03T09:28:55.150Z,10.80
2018-10-03T09:31:23.797Z,10.90
2018-10-03T09:33:52.396Z,11.00
2018-10-03T09:36:20.992Z,11.00
2018-10-03T09:38:49.620Z,10.90
2018-10-03T09:41:18.222Z,11.00
2018-10-03T09:43:47.660Z,11.00
2018-10-03T09:46:16.264Z,11.10
2018-10-03T09:48:44.851Z,11.20
2018-10-03T09:51:13.458Z,11.20
2018-10-03T09:53:43.161Z,11.10
2018-10-03T09:56:11.724Z,11.10
2018-10-03T09:58:40.274Z,11.00
2018-10-03T10:01:14.199Z,10.80
2018-10-03T10:03:42.786Z,10.50
2018-10-03T10:06:11.383Z,10.20
2018-10-03T10:08:39.965Z,10.00
2018-10-03T10:11:08.590Z,9.80
2018-10-03T10:13:37.856Z,9.70
2018-10-03T10:16:06.548Z,9.70
2018-10-03T10:18:35.082Z,9.80
2018-10-03T10:21:03.871Z,9.80
2018-10-03T10:23:32.572Z,9.80
2018-10-03T10:26:01.225Z,9.80
2018-10-03T10:28:29.759Z,9.70
2018-10-03T10:30:58.314Z,9.60
2018-10-03T10:33:26.861Z,9.70
2018-10-03T10:35:55.422Z,9.80
2018-10-03T10:38:23.980Z,9.90
2018-10-03T10:40:52.580Z,9.90
2018-10-03T10:43:21.121Z,9.90
2018-10-03T10:45:49.701Z,9.90
2018-10-03T10:48:18.253Z,9.90
2018-10-03T10:50:46.823Z,9.90
2018-10-03T10:53:15.386Z,9.90
2018-10-03T10:55:43.965Z,10.30
2018-10-03T10:58:12.580Z,10.50
2018-10-03T11:00:41.131Z,10.80
2018-10-03T11:03:09.680Z,11.00
2018-10-03T11:05:38.299Z,11.10
2018-10-03T11:08:06.885Z,11.10
2018-10-03T11:10:35.455Z,11.00
2018-10-03T11:13:04.011Z,10.90
2018-10-03T11:15:32.641Z,10.80
2018-10-03T11:18:01.174Z,10.80
2018-10-03T11:20:29.717Z,10.60
2018-10-03T11:22:58.274Z,10.40
2018-10-03T11:25:26.821Z,10.40
2018-10-03T11:27:55.433Z,10.50
2018-10-03T11:30:24.025Z,10.60
2018-10-03T11:32:52.631Z,10.70
2018-10-03T11:35:21.200Z,10.80
2018-10-03T11:37:49.802Z,10.70
2018-10-03T11:40:18.399Z,10.70
2018-10-03T11:42:46.973Z,10.80
2018-10-03T11:45:15.576Z,10.80
2018-10-03T11:47:44.198Z,10.80
2018-10-03T11:50:12.887Z,10.70
2018-10-03T11:52:41.447Z,10.50
2018-10-03T11:55:10.053Z,10.50
2018-10-03T11:57:38.658Z,10.60
2018-10-03T12:00:07.219Z,10.70
2018-10-03T12:02:35.822Z,10.60
2018-10-03T12:05:04.444Z,10.70
2018-10-03T12:07:33.052Z,10.60
2018-10-03T12:10:01.692Z,10.40
2018-10-03T12:12:30.258Z,10.20
2018-10-03T12:14:58.831Z,10.10
2018-10-03T12:17:27.597Z,10.00
2018-10-03T12:19:56.141Z,10.00
2018-10-03T12:22:24.722Z,10.00
2018-10-03T12:24:53.287Z,10.20
2018-10-03T12:27:21.859Z,10.20
2018-10-03T12:29:50.430Z,10.20
2018-10-03T12:32:19.011Z,10.40
2018-10-03T12:34:47.620Z,10.80
2018-10-03T12:37:16.191Z,11.20
2018-10-03T12:39:44.754Z,11.50
2018-10-03T12:42:13.349Z,11.70
2018-10-03T12:44:41.929Z,11.90
2018-10-03T12:47:10.470Z,12.00
2018-10-03T12:49:39.036Z,12.00
2018-10-03T12:52:08.050Z,11.90
2018-10-03T12:54:36.736Z,12.10
2018-10-03T12:57:05.289Z,12.20
2018-10-03T12:59:33.836Z,12.30
2018-10-03T13:02:02.464Z,12.30
2018-10-03T13:04:31.011Z,12.20
2018-10-03T13:06:59.589Z,12.10
2018-10-03T13:09:28.156Z,12.20
2018-10-03T13:11:56.687Z,12.20
2018-10-03T13:14:25.245Z,12.30
2018-10-03T13:16:53.778Z,12.20
2018-10-03T13:19:22.338Z,12.30
2018-10-03T13:21:51.141Z,12.30
2018-10-03T13:24:19.740Z,12.10
2018-10-03T13:26:48.307Z,11.90
2018-10-03T13:29:16.855Z,11.70
2018-10-03T13:31:45.467Z,11.60
2018-10-03T13:34:14.061Z,11.50
2018-10-03T13:36:42.723Z,11.60
2018-10-03T13:39:11.420Z,11.50
2018-10-03T13:41:40.141Z,11.30
2018-10-03T13:44:09.652Z,11.10
2018-10-03T13:46:38.210Z,10.90
2018-10-03T13:49:06.869Z,10.70
2018-10-03T13:51:35.441Z,10.50
2018-10-03T13:54:04.033Z,10.30
2018-10-03T13:56:32.577Z,10.20
2018-10-03T13:59:01.143Z,10.00
2018-10-03T14:01:29.730Z,9.90
2018-10-03T14:03:58.303Z,9.80
2018-10-03T14:06:26.891Z,9.70
2018-10-03T14:08:55.468Z,9.80
2018-10-03T14:11:24.213Z,9.90
2018-10-03T14:13:52.761Z,10.00
2018-10-03T14:16:21.882Z,10.20
2018-10-03T14:18:50.436Z,10.10
2018-10-03T14:21:19.015Z,10.20
2018-10-03T14:23:47.566Z,10.20
2018-10-03T14:26:16.154Z,10.30
2018-10-03T14:28:44.680Z,10.40
2018-10-03T14:31:13.277Z,10.50
2018-10-03T14:33:41.935Z,10.50
2018-10-03T14:36:10.493Z,10.50
2018-10-03T14:38:39.050Z,10.60
2018-10-03T14:41:07.682Z,10.70
2018-10-03T14:43:36.242Z,10.80
2018-10-03T14:46:04.817Z,10.90
2018-10-03T14:48:33.442Z,10.90
2018-10-03T14:51:02.010Z,11.00
2018-10-03T14:53:30.599Z,11.00
2018-10-03T14:55:59.191Z,11.00
2018-10-03T14:58:27.886Z,11.00
2018-10-03T15:00:56.442Z,11.00
2018-10-03T15:03:25.109Z,11.00
2018-10-03T15:05:53.941Z,11.00
2018-10-03T15:08:22.526Z,10.90
2018-10-03T15:10:51.095Z,10.90
2018-10-03T15:13:19.727Z,10.90
2018-10-03T15:15:48.283Z,10.90
2018-10-03T15:18:16.885Z,10.90
2018-10-03T15:20:45.504Z,10.80
2018-10-03T15:23:14.105Z,10.70
2018-10-03T15:25:42.685Z,10.70
2018-10-03T15:28:11.201Z,10.70
2018-10-03T15:30:39.788Z,10.60
2018-10-03T15:33:08.360Z,10.60
2018-10-03T15:35:36.928Z,10.60
2018-10-03T15:38:05.504Z,10.50
2018-10-03T15:40:34.107Z,10.50
2018-10-03T15:43:02.646Z,10.40
2018-10-03T15:45:31.182Z,10.40
2018-10-03T15:47:59.706Z,10.40
2018-10-03T15:50:28.276Z,10.30
2018-10-03T15:52:56.823Z,10.30
2018-10-03T15:55:25.372Z,10.20
2018-10-03T15:57:53.994Z,10.10
2018-10-03T16:00:22.566Z,10.10
2018-10-03T16:02:51.114Z,10.00
2018-10-03T16:05:19.671Z,10.00
2018-10-03T16:07:48.217Z,10.00
2018-10-03T16:10:16.896Z,9.90
2018-10-03T16:12:50.023Z,9.90
2018-10-03T16:15:18.582Z,9.90
2018-10-03T16:17:47.151Z,9.80
2018-10-03T16:20:15.718Z,9.90
2018-10-03T16:22:44.278Z,9.80
2018-10-03T16:25:13.319Z,9.80
2018-10-03T16:27:41.866Z,9.70
2018-10-03T16:30:10.422Z,9.70
2018-10-03T16:32:38.962Z,9.70
2018-10-03T16:35:07.530Z,9.70
2018-10-03T16:37:36.084Z,9.70
2018-10-03T16:40:04.844Z,9.70
2018-10-03T16:42:33.401Z,9.70
2018-10-03T16:45:01.963Z,9.70
2018-10-03T16:47:30.492Z,9.60
2018-10-03T16:49:59.058Z,9.60
2018-10-03T16:52:27.631Z,9.50
2018-10-03T16:54:56.191Z,9.50
2018-10-03T16:57:24.775Z,9.50
2018-10-03T16:59:53.326Z,9.50
2018-10-03T17:02:21.884Z,9.50
2018-10-03T17:04:50.463Z,9.40
2018-10-03T17:07:19.031Z,9.50
2018-10-03T17:09:47.583Z,9.40
2018-10-03T17:12:16.111Z,9.40
2018-10-03T17:14:44.663Z,9.40
2018-10-03T17:17:13.215Z,9.40
2018-10-03T17:19:41.778Z,9.40
2018-10-03T17:22:10.341Z,9.30
2018-10-03T17:24:39.332Z,9.20
2018-10-03T17:27:07.921Z,9.20
2018-10-03T17:29:36.474Z,9.20
2018-10-03T17:32:05.106Z,9.10
2018-10-03T17:34:33.684Z,9.10
2018-10-03T17:37:02.316Z,9.10
2018-10-03T17:39:30.891Z,9.00
2018-10-03T17:41:59.441Z,9.10
2018-10-03T17:44:28.015Z,9.10
2018-10-03T17:46:57.611Z,9.10
2018-10-03T17:49:26.183Z,9.00
2018-10-03T17:51:54.744Z,9.00
2018-10-03T17:54:23.298Z,9.00
2018-10-03T17:56:51.854Z,9.00
2018-10-03T17:59:20.429Z,9.00
2018-10-03T18:01:53.914Z,9.00
2018-10-03T18:04:22.489Z,9.00
2018-10-03T18:06:51.155Z,9.00
2018-10-03T18:09:19.756Z,8.90
2018-10-03T18:11:48.289Z,8.90
2018-10-03T18:14:16.829Z,8.90
2018-10-03T18:16:45.389Z,8.90
2018-10-03T18:19:13.953Z,8.90
2018-10-03T18:21:42.591Z,8.90
2018-10-03T18:24:11.144Z,8.90
2018-10-03T18:26:39.708Z,8.90
2018-10-03T18:29:08.260Z,8.90
2018-10-03T18:31:36.823Z,8.90
2018-10-03T18:34:05.427Z,8.80
2018-10-03T18:36:33.979Z,8.80
2018-10-03T18:39:02.593Z,8.80
2018-10-03T18:41:31.149Z,8.70
2018-10-03T18:43:59.700Z,8.70
2018-10-03T18:46:28.236Z,8.70
2018-10-03T18:48:56.773Z,8.60
2018-10-03T18:51:25.343Z,8.70
2018-10-03T18:53:53.907Z,8.60
2018-10-03T18:56:22.459Z,8.60
2018-10-03T18:58:51.063Z,8.60
2018-10-03T19:01:19.598Z,8.60
2018-10-03T19:03:48.144Z,8.60
2018-10-03T19:06:16.805Z,8.60
2018-10-03T19:08:45.413Z,8.50
2018-10-03T19:11:13.983Z,8.60
2018-10-03T19:13:42.531Z,8.60
2018-10-03T19:16:11.081Z,8.70
2018-10-03T19:18:39.656Z,8.70
2018-10-03T19:21:08.212Z,8.70
2018-10-03T19:23:36.787Z,8.70
2018-10-03T19:26:05.385Z,8.70
2018-10-03T19:28:33.938Z,8.70
2018-10-03T19:31:02.509Z,8.70
2018-10-03T19:33:31.174Z,8.80
2018-10-03T19:35:59.727Z,8.80
2018-10-03T19:38:28.283Z,8.90
2018-10-03T19:40:56.835Z,8.90
2018-10-03T19:43:25.385Z,8.90
2018-10-03T19:45:54.033Z,8.90
2018-10-03T19:48:22.727Z,8.90
2018-10-03T19:50:51.218Z,8.90
2018-10-03T19:53:25.112Z,9.00
2018-10-03T19:55:53.667Z,8.90
2018-10-03T19:58:22.212Z,9.00
2018-10-03T20:00:50.779Z,9.10
2018-10-03T20:03:19.351Z,9.10
2018-10-03T20:05:47.923Z,9.10
2018-10-03T20:08:16.535Z,9.10
2018-10-03T20:10:45.096Z,9.10
2018-10-03T20:13:13.644Z,9.10
2018-10-03T20:15:42.199Z,9.10
2018-10-03T20:18:10.750Z,9.20
2018-10-03T20:20:39.301Z,9.10
2018-10-03T20:23:07.933Z,9.20
2018-10-03T20:25:36.476Z,9.10
2018-10-03T20:28:05.051Z,9.10
2018-10-03T20:30:33.723Z,9.10
2018-10-03T20:33:02.300Z,9.00
2018-10-03T20:35:30.845Z,9.00
2018-10-03T20:37:59.390Z,9.00
2018-10-03T20:40:27.976Z,9.00
2018-10-03T20:42:56.531Z,8.90
2018-10-03T20:45:25.092Z,8.90
2018-10-03T20:47:53.633Z,8.90
2018-10-03T20:50:22.240Z,8.90
2018-10-03T20:52:50.796Z,9.00
2018-10-03T20:55:19.363Z,9.00
2018-10-03T20:57:47.967Z,9.00
2018-10-03T21:00:16.574Z,9.00
2018-10-03T21:02:45.291Z,9.00
2018-10-03T21:05:13.821Z,8.90
2018-10-03T21:07:42.391Z,8.90
2018-10-03T21:10:10.932Z,9.00
2018-10-03T21:12:39.493Z,9.00
2018-10-03T21:15:08.377Z,9.00
2018-10-03T21:17:36.914Z,8.90
2018-10-03T21:20:05.621Z,9.00
2018-10-03T21:22:34.191Z,8.90
2018-10-03T21:25:02.888Z,9.00
2018-10-03T21:27:31.367Z,9.00
2018-10-03T21:29:59.936Z,8.90
2018-10-03T21:32:28.541Z,9.00
2018-10-03T21:34:57.174Z,8.90
2018-10-03T21:37:25.718Z,9.00
2018-10-03T21:39:54.287Z,8.90
2018-10-03T21:42:22.831Z,8.90
2018-10-03T21:44:51.366Z,8.90
2018-10-03T21:47:19.935Z,8.90
2018-10-03T21:49:48.488Z,8.90
2018-10-03T21:52:17.046Z,8.80
2018-10-03T21:54:45.581Z,8.80
2018-10-03T21:57:14.168Z,8.80
2018-10-03T21:59:42.728Z,8.70
2018-10-03T22:02:11.283Z,8.70
2018-10-03T22:04:39.841Z,8.60
2018-10-03T22:07:08.419Z,8.70
2018-10-03T22:09:36.949Z,8.60
2018-10-03T22:12:05.524Z,8.60
2018-10-03T22:14:34.089Z,8.60
2018-10-03T22:17:02.647Z,8.60
2018-10-03T22:19:31.222Z,8.50
2018-10-03T22:21:59.816Z,8.50
2018-10-03T22:24:28.344Z,8.50
2018-10-03T22:26:56.906Z,8.50
2018-10-03T22:29:25.486Z,8.50
2018-10-03T22:31:54.042Z,8.60
2018-10-03T22:34:22.577Z,8.60
2018-10-03T22:36:51.131Z,8.60
2018-10-03T22:39:19.683Z,8.60
2018-10-03T22:41:48.227Z,8.60
2018-10-03T22:44:16.799Z,8.60
2018-10-03T22:46:45.360Z,8.60
2018-10-03T22:49:13.922Z,8.50
2018-10-03T22:51:42.654Z,8.60
2018-10-03T22:54:11.212Z,8.60
2018-10-03T22:56:39.838Z,8.60
2018-10-03T22:59:08.365Z,8.50
2018-10-03T23:01:36.956Z,8.50
2018-10-03T23:04:05.511Z,8.50
2018-10-03T23:06:34.096Z,8.50
2018-10-03T23:09:02.727Z,8.40
2018-10-03T23:11:31.262Z,8.40
2018-10-03T23:13:59.801Z,8.40
2018-10-03T23:16:28.400Z,8.40
2018-10-03T23:18:56.949Z,8.30
2018-10-03T23:21:25.514Z,8.30
2018-10-03T23:23:54.065Z,8.30
2018-10-03T23:26:22.639Z,8.30
2018-10-03T23:28:51.197Z,8.30
2018-10-03T23:31:19.753Z,8.20
2018-10-03T23:33:48.313Z,8.10
2018-10-03T23:36:16.875Z,8.10
2018-10-03T23:38:45.413Z,8.10
2018-10-03T23:41:13.961Z,8.00
2018-10-03T23:43:42.497Z,8.00
2018-10-03T23:46:11.043Z,8.00
2018-10-03T23:48:39.582Z,8.00
2018-10-03T23:51:08.112Z,8.00
2018-10-03T23:53:36.837Z,8.00
2018-10-03T23:56:05.388Z,7.90
2018-10-03T23:58:33.950Z,7.90
